createdAt,value
2023-04-22T00:01:46.531Z,297.85
2023-04-22T00:04:15.011Z,309.20
2023-04-22T00:06:43.250Z,294.92
2023-04-22T00:09:11.692Z,315.60
2023-04-22T00:11:39.448Z,314.65
2023-04-22T00:14:07.258Z,316.45
2023-04-22T00:16:35.101Z,313.20
2023-04-22T00:19:07.007Z,307.38
2023-04-22T00:21:34.656Z,315.15
2023-04-22T00:24:02.950Z,304.42
2023-04-22T00:26:30.609Z,314.40
2023-04-22T00:28:58.399Z,320.05
2023-04-22T00:31:26.159Z,347.95
2023-04-22T00:33:54.113Z,318.85
2023-04-22T00:36:23.615Z,304.23
2023-04-22T00:38:51.804Z,327.30
2023-04-22T00:41:20.053Z,321.60
2023-04-22T00:43:47.694Z,314.63
2023-04-22T00:46:17.223Z,322.38
2023-04-22T00:48:47.114Z,321.75
2023-04-22T00:51:14.771Z,313.67
2023-04-22T00:53:43.799Z,320.20
2023-04-22T00:56:12.600Z,323.63
2023-04-22T00:58:40.468Z,324.77
2023-04-22T01:01:08.284Z,321.33
2023-04-22T01:03:39.902Z,314.85
2023-04-22T01:06:08.328Z,326.92
2023-04-22T01:08:36.072Z,311.67
2023-04-22T01:11:05.195Z,323.33
2023-04-22T01:13:32.946Z,304.35
2023-04-22T01:16:02.570Z,316.85
2023-04-22T01:18:30.646Z,325.63
2023-04-22T01:20:58.312Z,323.40
2023-04-22T01:23:27.649Z,320.08
2023-04-22T01:25:55.882Z,306.55
2023-04-22T01:28:24.390Z,304.38
2023-04-22T01:30:52.304Z,322.25
2023-04-22T01:33:20.365Z,312.80
2023-04-22T01:35:48.279Z,293.30
2023-04-22T01:38:15.958Z,309.02
2023-04-22T01:40:45.027Z,309.00
2023-04-22T01:43:12.779Z,310.38
2023-04-22T01:45:40.844Z,304.30
2023-04-22T01:48:08.653Z,302.55
2023-04-22T01:50:38.199Z,302.83
2023-04-22T01:53:08.210Z,313.55
2023-04-22T01:55:37.192Z,302.70
2023-04-22T01:58:06.464Z,298.70
2023-04-22T02:00:34.394Z,282.67
2023-04-22T02:03:02.266Z,291.58
2023-04-22T02:05:30.190Z,291.50
2023-04-22T02:07:58.028Z,292.85
2023-04-22T02:10:25.756Z,276.58
2023-04-22T02:12:53.488Z,278.35
2023-04-22T02:15:22.799Z,277.73
2023-04-22T02:17:52.986Z,267.92
2023-04-22T02:20:20.675Z,273.05
2023-04-22T02:22:48.492Z,287.23
2023-04-22T02:25:16.680Z,289.30
2023-04-22T02:27:44.462Z,290.52
2023-04-22T02:30:13.234Z,258.25
2023-04-22T02:32:42.265Z,306.45
2023-04-22T02:35:12.225Z,284.20
2023-04-22T02:37:40.344Z,281.60
2023-04-22T02:40:09.623Z,271.85
2023-04-22T02:42:37.315Z,293.30
2023-04-22T02:45:05.806Z,299.27
2023-04-22T02:47:33.516Z,282.77
2023-04-22T02:50:02.525Z,288.75
2023-04-22T02:52:30.347Z,267.70
2023-04-22T02:54:58.116Z,282.77
2023-04-22T02:57:26.026Z,287.58
2023-04-22T02:59:54.135Z,286.13
2023-04-22T03:02:23.020Z,290.27
2023-04-22T03:05:04.074Z,290.80
2023-04-22T03:07:32.215Z,289.10
2023-04-22T03:10:00.637Z,302.77
2023-04-22T03:12:28.429Z,260.67
2023-04-22T03:14:56.314Z,280.38
2023-04-22T03:17:27.971Z,271.17
2023-04-22T03:19:56.271Z,270.33
2023-04-22T03:22:25.410Z,275.15
2023-04-22T03:24:56.722Z,278.60
2023-04-22T03:27:24.422Z,286.63
2023-04-22T03:29:52.092Z,276.05
2023-04-22T03:32:19.886Z,285.80
2023-04-22T03:34:51.386Z,274.90
2023-04-22T03:37:20.216Z,274.05
2023-04-22T03:39:49.338Z,290.45
2023-04-22T03:42:20.547Z,289.50
2023-04-22T03:44:48.292Z,282.48
2023-04-22T03:47:18.183Z,279.52
2023-04-22T03:49:52.461Z,272.75
2023-04-22T03:52:20.652Z,267.65
2023-04-22T03:54:58.020Z,273.10
2023-04-22T03:57:25.820Z,278.45
2023-04-22T03:59:53.632Z,274.15
2023-04-22T04:02:21.493Z,284.60
2023-04-22T04:04:49.551Z,282.50
2023-04-22T04:07:17.504Z,272.65
2023-04-22T04:09:45.213Z,260.00
2023-04-22T04:12:15.351Z,265.38
2023-04-22T04:14:45.465Z,265.65
2023-04-22T04:17:17.520Z,259.10
2023-04-22T04:19:45.506Z,259.05
2023-04-22T04:22:13.485Z,262.90
2023-04-22T04:24:50.572Z,270.50
2023-04-22T04:27:24.686Z,248.35
2023-04-22T04:29:55.941Z,269.80
2023-04-22T04:32:53.388Z,246.03
2023-04-22T04:35:22.148Z,243.23
2023-04-22T04:37:55.313Z,256.93
2023-04-22T04:40:23.896Z,246.55
2023-04-22T04:43:04.349Z,224.57
2023-04-22T04:45:37.866Z,255.73
2023-04-22T04:48:07.014Z,246.95
2023-04-22T04:50:37.624Z,253.43
2023-04-22T04:53:05.382Z,250.82
2023-04-22T04:55:38.327Z,262.95
2023-04-22T04:58:13.378Z,263.52
2023-04-22T05:00:41.162Z,266.70
2023-04-22T05:03:09.952Z,262.50
2023-04-22T05:05:37.837Z,269.77
2023-04-22T05:08:05.779Z,259.33
2023-04-22T05:10:36.392Z,267.35
2023-04-22T05:13:05.199Z,256.67
2023-04-22T05:15:35.475Z,261.58
2023-04-22T05:18:03.911Z,269.42
2023-04-22T05:20:35.339Z,276.73
2023-04-22T05:23:04.473Z,277.70
2023-04-22T05:25:32.477Z,268.58
2023-04-22T05:28:06.090Z,283.10
2023-04-22T05:30:42.806Z,255.35
2023-04-22T05:33:10.906Z,270.63
2023-04-22T05:35:38.846Z,282.38
2023-04-22T05:38:07.984Z,262.23
2023-04-22T05:40:39.340Z,274.60
2023-04-22T05:43:08.140Z,278.92
2023-04-22T05:45:37.666Z,284.88
2023-04-22T05:48:08.975Z,283.00
2023-04-22T05:50:43.369Z,268.65
2023-04-22T05:53:11.090Z,284.05
2023-04-22T05:55:38.843Z,283.55
2023-04-22T05:58:09.057Z,280.83
2023-04-22T06:00:53.933Z,286.23
2023-04-22T06:03:47.091Z,273.73
2023-04-22T06:06:15.070Z,283.95
2023-04-22T06:08:42.776Z,298.10
2023-04-22T06:11:11.855Z,292.98
2023-04-22T06:13:39.766Z,288.55
2023-04-22T06:18:38.289Z,296.17
2023-04-22T06:21:11.118Z,294.42
2023-04-22T06:23:38.861Z,296.90
2023-04-22T06:26:06.648Z,297.75
2023-04-22T06:28:36.090Z,282.27
2023-04-22T06:31:08.933Z,280.52
2023-04-22T06:33:37.102Z,262.67
2023-04-22T06:36:05.791Z,317.15
2023-04-22T06:38:36.123Z,283.75
2023-04-22T06:41:19.214Z,299.40
2023-04-22T06:43:50.652Z,309.60
2023-04-22T06:46:43.966Z,294.92
2023-04-22T06:49:30.389Z,281.60
2023-04-22T06:51:58.031Z,293.77
2023-04-22T06:54:27.442Z,288.92
2023-04-22T06:56:55.940Z,298.50
2023-04-22T06:59:24.473Z,307.52
2023-04-22T07:01:52.895Z,302.95
2023-04-22T07:04:20.820Z,298.58
2023-04-22T07:06:48.607Z,305.48
2023-04-22T07:09:16.658Z,305.35
2023-04-22T07:11:46.309Z,319.58
2023-04-22T07:14:18.760Z,315.73
2023-04-22T07:16:47.545Z,315.65
2023-04-22T07:19:15.368Z,322.88
2023-04-22T07:21:43.037Z,320.85
2023-04-22T07:24:12.100Z,338.77
2023-04-22T07:26:40.154Z,346.63
2023-04-22T07:29:09.199Z,363.98
2023-04-22T07:31:37.272Z,367.67
2023-04-22T07:34:05.107Z,358.77
2023-04-22T07:36:33.153Z,377.65
2023-04-22T07:39:00.816Z,362.52
2023-04-22T07:41:28.519Z,356.08
2023-04-22T07:43:56.314Z,344.60
2023-04-22T07:46:25.368Z,369.95
2023-04-22T07:48:53.176Z,363.88
2023-04-22T07:51:20.808Z,350.75
2023-04-22T07:53:48.432Z,323.55
2023-04-22T07:56:16.460Z,340.23
2023-04-22T07:58:44.179Z,326.80
2023-04-22T08:01:11.835Z,324.38
2023-04-22T08:03:41.074Z,332.50
2023-04-22T08:06:08.989Z,319.33
2023-04-22T08:08:36.696Z,307.05
2023-04-22T08:11:04.819Z,294.05
2023-04-22T08:13:32.466Z,299.88
2023-04-22T08:16:02.682Z,297.85
2023-04-22T08:18:30.711Z,276.40
2023-04-22T08:21:00.171Z,277.25
2023-04-22T08:23:27.829Z,285.73
2023-04-22T08:25:55.508Z,293.25
2023-04-22T08:28:23.356Z,295.27
2023-04-22T08:30:51.007Z,273.05
2023-04-22T08:33:18.650Z,289.52
2023-04-22T08:35:46.361Z,287.45
2023-04-22T08:38:15.620Z,271.10
2023-04-22T08:40:43.651Z,301.92
2023-04-22T08:43:11.293Z,294.67
2023-04-22T08:45:40.615Z,280.77
2023-04-22T08:48:09.538Z,286.45
2023-04-22T08:50:38.582Z,259.83
2023-04-22T08:53:06.500Z,262.02
2023-04-22T08:55:36.907Z,255.80
2023-04-22T08:58:06.268Z,264.08
2023-04-22T09:00:34.452Z,239.60
2023-04-22T09:03:05.914Z,257.60
2023-04-22T09:05:34.917Z,252.50
2023-04-22T09:08:03.994Z,248.15
2023-04-22T09:10:34.015Z,244.38
2023-04-22T09:13:05.442Z,243.38
2023-04-22T09:15:33.389Z,228.70
2023-04-22T09:18:03.018Z,238.50
2023-04-22T09:20:31.239Z,251.07
2023-04-22T09:23:04.388Z,228.10
2023-04-22T09:25:34.601Z,243.73
2023-04-22T09:28:03.742Z,240.52
2023-04-22T09:30:33.176Z,248.57
2023-04-22T09:33:02.507Z,231.88
2023-04-22T09:35:32.202Z,221.77
2023-04-22T09:38:01.646Z,224.73
2023-04-22T09:40:29.811Z,232.05
2023-04-22T09:42:59.624Z,206.10
2023-04-22T09:45:33.078Z,231.95
2023-04-22T09:48:04.157Z,220.80
2023-04-22T09:50:31.995Z,211.55
2023-04-22T09:53:01.902Z,225.60
2023-04-22T09:55:31.507Z,241.65
2023-04-22T09:57:59.572Z,226.15
2023-04-22T10:00:32.190Z,219.82
2023-04-22T10:03:00.209Z,221.43
2023-04-22T10:05:29.519Z,224.65
2023-04-22T10:07:57.230Z,222.20
2023-04-22T10:10:25.346Z,236.32
2023-04-22T10:12:54.022Z,221.38
2023-04-22T10:15:21.842Z,206.82
2023-04-22T10:17:54.204Z,204.32
2023-04-22T10:20:23.548Z,214.07
2023-04-22T10:22:53.745Z,211.75
2023-04-22T10:25:25.660Z,222.27
2023-04-22T10:28:03.599Z,216.52
2023-04-22T10:30:32.998Z,221.13
2023-04-22T10:33:35.190Z,226.65
2023-04-22T10:36:16.483Z,213.15
2023-04-22T10:39:17.756Z,217.80
2023-04-22T10:41:52.147Z,202.98
2023-04-22T10:44:21.430Z,229.98
2023-04-22T10:46:59.828Z,230.75
2023-04-22T10:49:31.317Z,214.80
2023-04-22T10:52:01.411Z,218.43
2023-04-22T10:54:58.905Z,218.73
2023-04-22T10:57:37.770Z,214.80
2023-04-22T11:00:25.534Z,216.85
2023-04-22T11:02:56.125Z,222.38
2023-04-22T11:05:27.050Z,217.45
2023-04-22T11:08:02.430Z,220.38
2023-04-22T11:10:35.799Z,224.43
2023-04-22T11:13:03.967Z,221.05
2023-04-22T11:15:32.177Z,228.13
2023-04-22T11:18:00.144Z,220.40
2023-04-22T11:20:29.556Z,239.70
2023-04-22T11:22:58.947Z,238.85
2023-04-22T11:25:28.220Z,234.35
2023-04-22T11:27:56.116Z,236.70
2023-04-22T11:30:25.190Z,240.95
2023-04-22T11:32:55.804Z,238.57
2023-04-22T11:35:25.279Z,224.90
2023-04-22T11:37:55.887Z,231.20
2023-04-22T11:40:31.183Z,220.13
2023-04-22T11:43:00.617Z,212.45
2023-04-22T11:45:30.207Z,195.55
2023-04-22T11:47:58.764Z,191.18
2023-04-22T11:50:28.642Z,191.02
2023-04-22T11:52:57.988Z,191.05
2023-04-22T11:55:30.504Z,185.77
2023-04-22T11:57:59.794Z,180.98
2023-04-22T12:00:32.984Z,184.15
2023-04-22T12:03:01.953Z,172.25
2023-04-22T12:05:40.994Z,174.30
2023-04-22T12:08:10.692Z,175.88
2023-04-22T12:10:45.189Z,182.60
2023-04-22T12:13:19.969Z,164.48
2023-04-22T12:15:48.052Z,162.73
2023-04-22T12:18:15.837Z,174.40
2023-04-22T12:20:43.768Z,172.07
2023-04-22T12:23:15.762Z,155.77
2023-04-22T12:25:45.136Z,164.10
2023-04-22T12:28:14.227Z,168.57
2023-04-22T12:30:42.275Z,169.45
2023-04-22T12:33:10.235Z,169.65
2023-04-22T12:35:37.875Z,161.43
2023-04-22T12:38:05.538Z,162.98
2023-04-22T12:40:33.293Z,157.25
2023-04-22T12:43:05.832Z,164.77
2023-04-22T12:45:33.595Z,154.48
2023-04-22T12:48:01.501Z,151.75
2023-04-22T12:50:29.166Z,155.00
2023-04-22T12:52:56.806Z,150.98
2023-04-22T12:55:24.716Z,155.65
2023-04-22T12:57:52.798Z,168.88
2023-04-22T13:00:22.757Z,167.40
2023-04-22T13:02:50.608Z,172.80
2023-04-22T13:05:19.615Z,161.55
2023-04-22T13:07:59.614Z,144.60
2023-04-22T13:10:34.215Z,147.88
2023-04-22T13:13:16.852Z,156.88
2023-04-22T13:15:47.950Z,147.38
2023-04-22T13:18:17.010Z,140.10
2023-04-22T13:20:44.924Z,148.13
2023-04-22T13:23:13.269Z,138.98
2023-04-22T13:25:41.142Z,137.23
2023-04-22T13:28:10.349Z,137.90
2023-04-22T13:30:37.933Z,135.10
2023-04-22T13:33:07.247Z,139.82
2023-04-22T13:35:34.903Z,143.18
2023-04-22T13:38:02.744Z,147.52
2023-04-22T13:40:30.456Z,152.65
2023-04-22T13:42:58.307Z,156.00
2023-04-22T13:45:26.138Z,148.48
2023-04-22T13:47:54.735Z,149.90
2023-04-22T13:50:24.398Z,164.80
2023-04-22T13:52:52.212Z,164.25
2023-04-22T13:55:20.425Z,162.40
2023-04-22T13:57:48.141Z,167.80
2023-04-22T14:00:16.064Z,170.65
2023-04-22T14:02:43.797Z,164.60
2023-04-22T14:05:11.635Z,170.70
2023-04-22T14:07:40.753Z,175.20
2023-04-22T14:10:12.059Z,172.73
2023-04-22T14:12:39.989Z,173.90
2023-04-22T14:15:10.769Z,178.45
2023-04-22T14:17:38.760Z,184.38
2023-04-22T14:20:08.279Z,179.65
2023-04-22T14:22:35.952Z,174.43
2023-04-22T14:25:05.469Z,169.95
2023-04-22T14:27:33.281Z,167.80
2023-04-22T14:30:01.205Z,161.32
2023-04-22T14:32:29.324Z,159.45
2023-04-22T14:34:57.053Z,158.32
2023-04-22T14:37:24.801Z,153.18
2023-04-22T14:39:52.701Z,145.73
2023-04-22T14:42:21.789Z,142.98
2023-04-22T14:44:49.442Z,146.93
2023-04-22T14:47:17.076Z,154.70
2023-04-22T14:49:44.788Z,152.20
2023-04-22T14:52:12.639Z,149.00
2023-04-22T14:54:40.304Z,149.40
2023-04-22T14:57:08.080Z,141.55
2023-04-22T14:59:37.071Z,139.95
2023-04-22T15:02:05.238Z,142.15
2023-04-22T15:04:33.058Z,141.32
2023-04-22T15:07:01.633Z,149.95
2023-04-22T15:09:29.411Z,150.75
2023-04-22T15:11:59.478Z,138.68
2023-04-22T15:14:27.224Z,153.55
2023-04-22T15:16:56.510Z,151.93
2023-04-22T15:19:25.226Z,150.50
2023-04-22T15:21:52.884Z,144.48
2023-04-22T15:24:21.349Z,150.40
2023-04-22T15:26:49.113Z,148.98
2023-04-22T15:29:16.761Z,138.40
2023-04-22T15:31:45.594Z,137.98
2023-04-22T15:34:14.690Z,140.45
2023-04-22T15:36:42.527Z,140.30
2023-04-22T15:39:10.639Z,137.25
2023-04-22T15:41:38.564Z,145.57
2023-04-22T15:44:08.548Z,148.27
2023-04-22T15:46:36.915Z,141.98
2023-04-22T15:49:05.184Z,135.45
2023-04-22T15:51:34.253Z,156.18
2023-04-22T15:54:03.752Z,152.40
2023-04-22T15:56:32.936Z,138.50
2023-04-22T15:59:00.725Z,137.50
2023-04-22T16:01:28.408Z,149.05
2023-04-22T16:03:56.407Z,139.48
2023-04-22T16:06:24.131Z,151.70
2023-04-22T16:08:53.380Z,152.73
2023-04-22T16:11:21.070Z,147.55
2023-04-22T16:13:48.709Z,151.38
2023-04-22T16:16:17.509Z,134.15
2023-04-22T16:18:45.413Z,148.93
2023-04-22T16:21:13.259Z,151.93
2023-04-22T16:23:41.015Z,150.18
2023-04-22T16:26:10.543Z,149.10
2023-04-22T16:28:38.219Z,157.50
2023-04-22T16:31:06.064Z,160.10
2023-04-22T16:33:34.153Z,166.52
2023-04-22T16:36:02.037Z,172.60
2023-04-22T16:38:29.707Z,181.20
2023-04-22T16:40:57.943Z,193.65
2023-04-22T16:43:27.052Z,203.95
2023-04-22T16:45:54.693Z,195.43
2023-04-22T16:48:22.623Z,209.18
2023-04-22T16:50:51.185Z,184.82
2023-04-22T16:53:18.878Z,175.70
2023-04-22T16:55:46.469Z,194.65
2023-04-22T16:58:14.094Z,187.30
2023-04-22T17:00:43.091Z,192.15
2023-04-22T17:03:11.859Z,181.02
2023-04-22T17:05:39.991Z,183.73
2023-04-22T17:08:08.192Z,177.20
2023-04-22T17:10:37.278Z,183.43
2023-04-22T17:13:04.890Z,182.77
2023-04-22T17:15:32.670Z,201.40
2023-04-22T17:18:02.442Z,208.65
2023-04-22T17:20:30.152Z,215.70
2023-04-22T17:22:58.399Z,232.90
2023-04-22T17:25:26.062Z,211.30
2023-04-22T17:27:53.718Z,216.45
2023-04-22T17:30:21.586Z,231.77
2023-04-22T17:32:49.275Z,220.18
2023-04-22T17:35:18.445Z,227.50
2023-04-22T17:37:46.314Z,216.95
2023-04-22T17:40:14.022Z,235.55
2023-04-22T17:45:13.065Z,229.18
2023-04-22T17:47:40.767Z,208.30
2023-04-22T17:50:09.666Z,197.75
2023-04-22T17:52:38.687Z,201.55
2023-04-22T17:55:07.454Z,194.73
2023-04-22T17:57:35.115Z,180.88
2023-04-22T18:00:02.807Z,168.82
2023-04-22T18:02:35.369Z,167.80
2023-04-22T18:05:03.173Z,160.35
2023-04-22T18:07:30.949Z,165.70
2023-04-22T18:10:00.003Z,163.43
2023-04-22T18:12:30.616Z,164.63
2023-04-22T18:14:58.782Z,156.60
2023-04-22T18:17:26.658Z,157.57
2023-04-22T18:20:02.753Z,163.77
2023-04-22T18:22:34.126Z,176.32
2023-04-22T18:25:03.206Z,175.65
2023-04-22T18:27:31.443Z,172.85
2023-04-22T18:29:59.136Z,179.45
2023-04-22T18:32:26.911Z,195.05
2023-04-22T18:34:54.678Z,198.55
2023-04-22T18:37:22.345Z,202.52
2023-04-22T18:39:49.978Z,198.52
2023-04-22T18:42:19.280Z,200.63
2023-04-22T18:44:46.908Z,190.82
2023-04-22T18:47:14.680Z,198.98
2023-04-22T18:49:42.330Z,201.15
2023-04-22T18:52:09.988Z,192.15
2023-04-22T18:54:37.674Z,194.02
2023-04-22T18:57:05.840Z,201.05
2023-04-22T18:59:34.855Z,220.70
2023-04-22T19:02:02.702Z,212.20
2023-04-22T19:04:30.530Z,233.63
2023-04-22T19:06:59.114Z,215.80
2023-04-22T19:09:26.855Z,224.85
2023-04-22T19:11:54.575Z,229.13
2023-04-22T19:14:22.306Z,223.80
2023-04-22T19:16:51.258Z,232.98
2023-04-22T19:19:18.981Z,223.48
2023-04-22T19:21:46.661Z,236.85
2023-04-22T19:24:14.571Z,262.38
2023-04-22T19:26:42.455Z,266.52
2023-04-22T19:29:10.687Z,282.42
2023-04-22T19:31:38.452Z,302.83
2023-04-22T19:34:07.565Z,297.45
2023-04-22T19:36:35.251Z,317.55
2023-04-22T19:39:03.037Z,326.77
2023-04-22T19:41:33.318Z,336.30
2023-04-22T19:44:01.004Z,347.30
2023-04-22T19:46:28.908Z,358.30
2023-04-22T19:48:57.802Z,351.60
2023-04-22T19:51:27.089Z,363.02
2023-04-22T19:53:55.853Z,378.40
2023-04-22T19:56:23.993Z,394.63
2023-04-22T19:58:52.985Z,403.92
2023-04-22T20:01:21.188Z,397.50
2023-04-22T20:03:49.900Z,400.63
2023-04-22T20:06:18.106Z,402.42
2023-04-22T20:08:47.988Z,397.40
2023-04-22T20:11:15.864Z,397.08
2023-04-22T20:13:45.699Z,390.58
2023-04-22T20:16:15.034Z,378.45
2023-04-22T20:18:42.987Z,362.40
2023-04-22T20:21:10.832Z,384.02
2023-04-22T20:23:40.988Z,386.25
2023-04-22T20:26:10.358Z,399.13
2023-04-22T20:28:45.829Z,391.30
2023-04-22T20:31:14.453Z,375.40
2023-04-22T20:33:42.644Z,371.65
2023-04-22T20:36:11.348Z,404.88
2023-04-22T20:38:39.350Z,389.70
2023-04-22T20:41:08.496Z,375.48
2023-04-22T20:43:37.630Z,374.70
2023-04-22T20:46:05.395Z,404.50
2023-04-22T20:48:33.148Z,383.10
2023-04-22T20:51:00.835Z,372.65
2023-04-22T20:53:28.639Z,368.40
2023-04-22T20:55:56.419Z,344.38
2023-04-22T20:58:24.345Z,373.73
2023-04-22T21:00:53.464Z,362.10
2023-04-22T21:03:23.548Z,362.00
2023-04-22T21:05:52.347Z,384.23
2023-04-22T21:08:22.848Z,365.75
2023-04-22T21:10:52.510Z,349.25
2023-04-22T21:13:21.008Z,364.33
2023-04-22T21:15:56.748Z,350.77
2023-04-22T21:18:26.409Z,340.15
2023-04-22T21:20:56.541Z,359.30
2023-04-22T21:23:25.484Z,356.30
2023-04-22T21:25:55.706Z,357.40
2023-04-22T21:28:23.989Z,346.00
2023-04-22T21:30:52.250Z,346.08
2023-04-22T21:33:21.292Z,375.42
2023-04-22T21:35:49.291Z,356.98
2023-04-22T21:38:17.135Z,355.10
2023-04-22T21:40:45.118Z,356.63
2023-04-22T21:43:12.938Z,348.30
2023-04-22T21:45:40.770Z,357.40
2023-04-22T21:48:08.853Z,385.63
2023-04-22T21:50:38.229Z,349.77
2023-04-22T21:53:06.522Z,356.65
2023-04-22T21:55:34.563Z,367.60
2023-04-22T21:58:02.320Z,381.30
2023-04-22T22:00:30.818Z,370.73
2023-04-22T22:02:58.730Z,379.10
2023-04-22T22:05:26.435Z,356.77
2023-04-22T22:07:56.874Z,352.15
2023-04-22T22:10:25.175Z,353.83
2023-04-22T22:12:52.926Z,380.45
2023-04-22T22:15:20.837Z,360.23
2023-04-22T22:17:48.818Z,373.58
2023-04-22T22:20:19.964Z,375.23
2023-04-22T22:22:47.868Z,376.40
2023-04-22T22:25:17.321Z,370.35
2023-04-22T22:27:47.087Z,359.67
2023-04-22T22:30:15.348Z,360.88
2023-04-22T22:32:43.119Z,350.58
2023-04-22T22:35:11.420Z,350.58
2023-04-22T22:37:39.061Z,366.83
2023-04-22T22:40:08.592Z,339.92
2023-04-22T22:42:37.591Z,355.95
2023-04-22T22:45:06.700Z,347.80
2023-04-22T22:47:34.569Z,354.88
2023-04-22T22:50:02.393Z,340.08
2023-04-22T22:52:30.405Z,343.30
2023-04-22T22:54:58.032Z,352.23
2023-04-22T22:57:26.154Z,341.45
2023-04-22T22:59:55.491Z,360.65
2023-04-22T23:02:23.237Z,349.58
2023-04-22T23:04:51.232Z,348.92
2023-04-22T23:07:18.949Z,353.23
2023-04-22T23:09:46.637Z,366.00
2023-04-22T23:12:14.275Z,353.85
2023-04-22T23:14:42.348Z,354.42
2023-04-22T23:17:11.832Z,337.75
2023-04-22T23:19:42.225Z,361.83
2023-04-22T23:22:11.473Z,342.50
2023-04-22T23:24:40.039Z,361.10
2023-04-22T23:27:08.215Z,376.63
2023-04-22T23:29:36.764Z,355.88
2023-04-22T23:32:05.948Z,350.67
2023-04-22T23:34:36.214Z,362.00
2023-04-22T23:37:06.368Z,349.42
2023-04-22T23:39:34.095Z,364.55
2023-04-22T23:42:02.518Z,359.60
2023-04-22T23:44:30.174Z,341.63
2023-04-22T23:46:58.081Z,352.00
2023-04-22T23:49:25.839Z,365.90
2023-04-22T23:51:55.651Z,335.63
2023-04-22T23:54:23.852Z,365.58
2023-04-22T23:56:52.444Z,373.73
2023-04-22T23:59:20.675Z,333.05
